sensor_id;sensor_type;location;lat;lon;timestamp;P1;durP1;ratioP1;P2;durP2;ratioP2
65737;SDS011;52478;51.844;6.582;2024-03-02T00:01:29;11.27;;;5.93;;
65737;SDS011;52478;51.844;6.582;2024-03-02T00:03:56;8.95;;;4.10;;
65737;SDS011;52478;51.844;6.582;2024-03-02T00:06:22;6.90;;;3.40;;
65737;SDS011;52478;51.844;6.582;2024-03-02T00:08:49;7.18;;;3.15;;
65737;SDS011;52478;51.844;6.582;2024-03-02T00:11:17;6.85;;;3.28;;
65737;SDS011;52478;51.844;6.582;2024-03-02T00:13:46;7.63;;;3.65;;
65737;SDS011;52478;51.844;6.582;2024-03-02T00:16:12;6.53;;;2.70;;
65737;SDS011;52478;51.844;6.582;2024-03-02T00:18:39;6.72;;;2.90;;
65737;SDS011;52478;51.844;6.582;2024-03-02T00:21:06;7.13;;;2.47;;
65737;SDS011;52478;51.844;6.582;2024-03-02T00:23:35;6.63;;;2.58;;
65737;SDS011;52478;51.844;6.582;2024-03-02T00:26:01;6.40;;;2.40;;
65737;SDS011;52478;51.844;6.582;2024-03-02T00:28:29;6.10;;;2.50;;
65737;SDS011;52478;51.844;6.582;2024-03-02T00:31:01;6.47;;;2.40;;
65737;SDS011;52478;51.844;6.582;2024-03-02T00:33:30;6.78;;;2.13;;
65737;SDS011;52478;51.844;6.582;2024-03-02T00:35:59;6.50;;;2.15;;
65737;SDS011;52478;51.844;6.582;2024-03-02T00:38:26;6.60;;;2.25;;
65737;SDS011;52478;51.844;6.582;2024-03-02T00:40:53;6.63;;;2.33;;
65737;SDS011;52478;51.844;6.582;2024-03-02T00:46:10;5.30;;;1.80;;
65737;SDS011;52478;51.844;6.582;2024-03-02T00:48:37;5.68;;;1.88;;
65737;SDS011;52478;51.844;6.582;2024-03-02T00:51:04;4.97;;;1.88;;
65737;SDS011;52478;51.844;6.582;2024-03-02T00:53:31;6.85;;;2.00;;
65737;SDS011;52478;51.844;6.582;2024-03-02T00:55:58;5.53;;;2.10;;
65737;SDS011;52478;51.844;6.582;2024-03-02T01:00:51;4.97;;;1.77;;
65737;SDS011;52478;51.844;6.582;2024-03-02T01:03:19;7.22;;;2.10;;
65737;SDS011;52478;51.844;6.582;2024-03-02T01:05:46;6.65;;;2.10;;
65737;SDS011;52478;51.844;6.582;2024-03-02T01:08:12;5.30;;;1.63;;
65737;SDS011;52478;51.844;6.582;2024-03-02T01:10:39;6.18;;;1.83;;
65737;SDS011;52478;51.844;6.582;2024-03-02T01:13:05;5.50;;;1.80;;
65737;SDS011;52478;51.844;6.582;2024-03-02T01:15:31;5.00;;;1.60;;
65737;SDS011;52478;51.844;6.582;2024-03-02T01:17:59;6.07;;;1.73;;
65737;SDS011;52478;51.844;6.582;2024-03-02T01:20:27;5.70;;;1.98;;
65737;SDS011;52478;51.844;6.582;2024-03-02T01:22:53;5.97;;;1.60;;
65737;SDS011;52478;51.844;6.582;2024-03-02T01:25:20;5.03;;;1.63;;
65737;SDS011;52478;51.844;6.582;2024-03-02T01:27:46;6.95;;;1.77;;
65737;SDS011;52478;51.844;6.582;2024-03-02T01:30:13;6.10;;;1.48;;
65737;SDS011;52478;51.844;6.582;2024-03-02T01:32:40;5.05;;;1.80;;
65737;SDS011;52478;51.844;6.582;2024-03-02T01:35:06;4.97;;;1.52;;
65737;SDS011;52478;51.844;6.582;2024-03-02T01:37:35;5.75;;;1.70;;
65737;SDS011;52478;51.844;6.582;2024-03-02T01:40:01;6.63;;;1.98;;
65737;SDS011;52478;51.844;6.582;2024-03-02T01:42:33;5.78;;;1.73;;
65737;SDS011;52478;51.844;6.582;2024-03-02T01:44:59;5.68;;;1.80;;
65737;SDS011;52478;51.844;6.582;2024-03-02T01:47:26;6.70;;;1.98;;
65737;SDS011;52478;51.844;6.582;2024-03-02T01:49:52;6.45;;;1.67;;
65737;SDS011;52478;51.844;6.582;2024-03-02T01:52:19;6.03;;;1.88;;
65737;SDS011;52478;51.844;6.582;2024-03-02T01:54:47;4.90;;;1.70;;
65737;SDS011;52478;51.844;6.582;2024-03-02T01:57:13;5.07;;;1.70;;
65737;SDS011;52478;51.844;6.582;2024-03-02T01:59:40;5.90;;;1.77;;
65737;SDS011;52478;51.844;6.582;2024-03-02T02:02:06;5.55;;;1.77;;
65737;SDS011;52478;51.844;6.582;2024-03-02T02:04:33;6.53;;;1.50;;
65737;SDS011;52478;51.844;6.582;2024-03-02T02:06:59;4.45;;;1.60;;
65737;SDS011;52478;51.844;6.582;2024-03-02T02:09:26;7.15;;;2.15;;
65737;SDS011;52478;51.844;6.582;2024-03-02T02:11:54;5.03;;;1.70;;
65737;SDS011;52478;51.844;6.582;2024-03-02T02:14:20;6.15;;;2.15;;
65737;SDS011;52478;51.844;6.582;2024-03-02T02:16:46;5.45;;;2.00;;
65737;SDS011;52478;51.844;6.582;2024-03-02T02:19:13;5.55;;;1.83;;
65737;SDS011;52478;51.844;6.582;2024-03-02T02:21:43;5.50;;;1.75;;
65737;SDS011;52478;51.844;6.582;2024-03-02T02:24:09;6.47;;;2.00;;
65737;SDS011;52478;51.844;6.582;2024-03-02T02:26:38;5.72;;;2.17;;
65737;SDS011;52478;51.844;6.582;2024-03-02T02:29:04;6.03;;;1.70;;
65737;SDS011;52478;51.844;6.582;2024-03-02T02:31:36;7.63;;;2.28;;
65737;SDS011;52478;51.844;6.582;2024-03-02T02:34:03;7.25;;;2.00;;
65737;SDS011;52478;51.844;6.582;2024-03-02T02:36:29;5.25;;;1.77;;
65737;SDS011;52478;51.844;6.582;2024-03-02T02:38:57;5.93;;;1.90;;
65737;SDS011;52478;51.844;6.582;2024-03-02T02:41:28;5.22;;;1.85;;
65737;SDS011;52478;51.844;6.582;2024-03-02T02:43:54;6.60;;;1.90;;
65737;SDS011;52478;51.844;6.582;2024-03-02T02:46:21;6.93;;;2.30;;
65737;SDS011;52478;51.844;6.582;2024-03-02T02:48:47;5.88;;;2.00;;
65737;SDS011;52478;51.844;6.582;2024-03-02T02:51:14;5.45;;;1.92;;
65737;SDS011;52478;51.844;6.582;2024-03-02T02:56:09;5.95;;;2.00;;
65737;SDS011;52478;51.844;6.582;2024-03-02T02:58:36;6.38;;;2.38;;
65737;SDS011;52478;51.844;6.582;2024-03-02T03:01:02;6.53;;;2.17;;
65737;SDS011;52478;51.844;6.582;2024-03-02T03:03:29;5.53;;;2.05;;
65737;SDS011;52478;51.844;6.582;2024-03-02T03:05:55;5.45;;;2.05;;
65737;SDS011;52478;51.844;6.582;2024-03-02T03:08:22;6.47;;;1.98;;
65737;SDS011;52478;51.844;6.582;2024-03-02T03:10:49;5.45;;;2.00;;
65737;SDS011;52478;51.844;6.582;2024-03-02T03:13:17;5.82;;;2.00;;
65737;SDS011;52478;51.844;6.582;2024-03-02T03:15:43;5.57;;;2.20;;
65737;SDS011;52478;51.844;6.582;2024-03-02T03:18:10;5.50;;;1.83;;
65737;SDS011;52478;51.844;6.582;2024-03-02T03:20:36;6.28;;;2.00;;
65737;SDS011;52478;51.844;6.582;2024-03-02T03:23:03;6.40;;;2.22;;
65737;SDS011;52478;51.844;6.582;2024-03-02T03:25:30;6.60;;;2.13;;
65737;SDS011;52478;51.844;6.582;2024-03-02T03:27:56;5.90;;;2.17;;
65737;SDS011;52478;51.844;6.582;2024-03-02T03:30:24;5.65;;;1.90;;
65737;SDS011;52478;51.844;6.582;2024-03-02T03:32:50;6.38;;;1.92;;
65737;SDS011;52478;51.844;6.582;2024-03-02T03:35:17;5.43;;;2.00;;
65737;SDS011;52478;51.844;6.582;2024-03-02T03:37:43;7.03;;;1.90;;
65737;SDS011;52478;51.844;6.582;2024-03-02T03:40:10;5.05;;;1.77;;
65737;SDS011;52478;51.844;6.582;2024-03-02T03:42:39;5.15;;;1.92;;
65737;SDS011;52478;51.844;6.582;2024-03-02T03:45:05;5.30;;;1.95;;
65737;SDS011;52478;51.844;6.582;2024-03-02T03:47:34;6.57;;;2.05;;
65737;SDS011;52478;51.844;6.582;2024-03-02T03:50:01;6.95;;;1.75;;
65737;SDS011;52478;51.844;6.582;2024-03-02T03:52:30;6.05;;;1.88;;
65737;SDS011;52478;51.844;6.582;2024-03-02T03:54:57;5.43;;;2.00;;
65737;SDS011;52478;51.844;6.582;2024-03-02T03:57:23;5.30;;;1.90;;
65737;SDS011;52478;51.844;6.582;2024-03-02T03:59:50;6.53;;;1.92;;
65737;SDS011;52478;51.844;6.582;2024-03-02T04:02:16;8.95;;;2.00;;
65737;SDS011;52478;51.844;6.582;2024-03-02T04:04:44;5.50;;;1.80;;
65737;SDS011;52478;51.844;6.582;2024-03-02T04:07:11;8.23;;;2.10;;
65737;SDS011;52478;51.844;6.582;2024-03-02T04:09:37;8.20;;;1.95;;
65737;SDS011;52478;51.844;6.582;2024-03-02T04:12:04;5.95;;;1.77;;
65737;SDS011;52478;51.844;6.582;2024-03-02T04:14:30;5.03;;;1.60;;
65737;SDS011;52478;51.844;6.582;2024-03-02T04:16:57;4.82;;;1.60;;
65737;SDS011;52478;51.844;6.582;2024-03-02T04:19:23;7.32;;;1.75;;
65737;SDS011;52478;51.844;6.582;2024-03-02T04:21:51;6.35;;;1.83;;
65737;SDS011;52478;51.844;6.582;2024-03-02T04:24:17;4.88;;;1.70;;
65737;SDS011;52478;51.844;6.582;2024-03-02T04:26:44;6.03;;;1.73;;
65737;SDS011;52478;51.844;6.582;2024-03-02T04:29:10;4.88;;;1.60;;
65737;SDS011;52478;51.844;6.582;2024-03-02T04:31:37;4.72;;;1.60;;
65737;SDS011;52478;51.844;6.582;2024-03-02T04:34:03;4.78;;;1.63;;
65737;SDS011;52478;51.844;6.582;2024-03-02T04:36:30;5.20;;;1.67;;
65737;SDS011;52478;51.844;6.582;2024-03-02T04:38:57;3.88;;;1.38;;
65737;SDS011;52478;51.844;6.582;2024-03-02T04:41:24;5.45;;;1.60;;
65737;SDS011;52478;51.844;6.582;2024-03-02T04:43:50;4.45;;;1.40;;
65737;SDS011;52478;51.844;6.582;2024-03-02T04:46:17;6.53;;;1.55;;
65737;SDS011;52478;51.844;6.582;2024-03-02T04:48:43;4.18;;;1.48;;
65737;SDS011;52478;51.844;6.582;2024-03-02T04:51:09;4.13;;;1.48;;
65737;SDS011;52478;51.844;6.582;2024-03-02T04:53:36;4.60;;;1.63;;
65737;SDS011;52478;51.844;6.582;2024-03-02T04:56:05;5.03;;;1.48;;
65737;SDS011;52478;51.844;6.582;2024-03-02T04:59:04;4.65;;;1.70;;
65737;SDS011;52478;51.844;6.582;2024-03-02T05:01:31;4.30;;;1.50;;
65737;SDS011;52478;51.844;6.582;2024-03-02T05:03:57;4.28;;;1.67;;
65737;SDS011;52478;51.844;6.582;2024-03-02T05:06:24;4.40;;;1.38;;
65737;SDS011;52478;51.844;6.582;2024-03-02T05:08:50;5.15;;;1.50;;
65737;SDS011;52478;51.844;6.582;2024-03-02T05:11:18;4.38;;;1.30;;
65737;SDS011;52478;51.844;6.582;2024-03-02T05:14:02;4.28;;;1.42;;
65737;SDS011;52478;51.844;6.582;2024-03-02T05:16:29;4.63;;;1.55;;
65737;SDS011;52478;51.844;6.582;2024-03-02T05:18:56;4.10;;;1.50;;
65737;SDS011;52478;51.844;6.582;2024-03-02T05:21:22;4.85;;;1.40;;
65737;SDS011;52478;51.844;6.582;2024-03-02T05:23:49;3.88;;;1.38;;
65737;SDS011;52478;51.844;6.582;2024-03-02T05:26:15;4.53;;;1.40;;
65737;SDS011;52478;51.844;6.582;2024-03-02T05:28:43;3.67;;;1.30;;
65737;SDS011;52478;51.844;6.582;2024-03-02T05:31:09;4.50;;;1.70;;
65737;SDS011;52478;51.844;6.582;2024-03-02T05:33:37;4.00;;;1.40;;
65737;SDS011;52478;51.844;6.582;2024-03-02T05:36:03;5.15;;;1.40;;
65737;SDS011;52478;51.844;6.582;2024-03-02T05:38:30;3.80;;;1.40;;
65737;SDS011;52478;51.844;6.582;2024-03-02T05:40:57;4.88;;;1.42;;
65737;SDS011;52478;51.844;6.582;2024-03-02T05:43:23;4.30;;;1.35;;
65737;SDS011;52478;51.844;6.582;2024-03-02T05:45:51;6.57;;;1.40;;
65737;SDS011;52478;51.844;6.582;2024-03-02T05:48:17;5.70;;;2.08;;
65737;SDS011;52478;51.844;6.582;2024-03-02T05:50:44;3.85;;;1.20;;
65737;SDS011;52478;51.844;6.582;2024-03-02T05:53:10;4.90;;;1.35;;
65737;SDS011;52478;51.844;6.582;2024-03-02T05:55:37;4.00;;;1.35;;
65737;SDS011;52478;51.844;6.582;2024-03-02T05:58:03;4.68;;;1.63;;
65737;SDS011;52478;51.844;6.582;2024-03-02T06:00:45;4.47;;;1.50;;
65737;SDS011;52478;51.844;6.582;2024-03-02T06:03:13;5.45;;;1.60;;
65737;SDS011;52478;51.844;6.582;2024-03-02T06:05:39;4.88;;;1.48;;
65737;SDS011;52478;51.844;6.582;2024-03-02T06:08:06;5.55;;;1.65;;
65737;SDS011;52478;51.844;6.582;2024-03-02T06:10:33;4.90;;;1.40;;
65737;SDS011;52478;51.844;6.582;2024-03-02T06:12:59;4.78;;;1.50;;
65737;SDS011;52478;51.844;6.582;2024-03-02T06:15:26;4.40;;;1.58;;
65737;SDS011;52478;51.844;6.582;2024-03-02T06:17:52;4.38;;;1.52;;
65737;SDS011;52478;51.844;6.582;2024-03-02T06:20:20;6.35;;;1.60;;
65737;SDS011;52478;51.844;6.582;2024-03-02T06:22:46;4.25;;;1.33;;
65737;SDS011;52478;51.844;6.582;2024-03-02T06:25:13;4.47;;;1.55;;
65737;SDS011;52478;51.844;6.582;2024-03-02T06:27:39;4.07;;;1.45;;
65737;SDS011;52478;51.844;6.582;2024-03-02T06:30:06;4.63;;;1.50;;
65737;SDS011;52478;51.844;6.582;2024-03-02T06:32:33;4.75;;;1.42;;
65737;SDS011;52478;51.844;6.582;2024-03-02T06:34:59;5.82;;;1.52;;
65737;SDS011;52478;51.844;6.582;2024-03-02T06:37:27;4.35;;;1.27;;
65737;SDS011;52478;51.844;6.582;2024-03-02T06:39:54;5.18;;;1.40;;
65737;SDS011;52478;51.844;6.582;2024-03-02T06:42:20;4.45;;;1.67;;
65737;SDS011;52478;51.844;6.582;2024-03-02T06:44:46;5.55;;;1.70;;
65737;SDS011;52478;51.844;6.582;2024-03-02T06:47:13;3.78;;;1.42;;
65737;SDS011;52478;51.844;6.582;2024-03-02T06:49:41;5.43;;;1.58;;
65737;SDS011;52478;51.844;6.582;2024-03-02T06:52:08;5.82;;;1.67;;
65737;SDS011;52478;51.844;6.582;2024-03-02T06:54:36;6.63;;;2.03;;
65737;SDS011;52478;51.844;6.582;2024-03-02T06:57:02;6.55;;;1.83;;
65737;SDS011;52478;51.844;6.582;2024-03-02T06:59:29;7.05;;;2.03;;
65737;SDS011;52478;51.844;6.582;2024-03-02T07:01:56;6.75;;;2.03;;
65737;SDS011;52478;51.844;6.582;2024-03-02T07:04:23;7.13;;;1.90;;
65737;SDS011;52478;51.844;6.582;2024-03-02T07:06:49;5.32;;;1.77;;
65737;SDS011;52478;51.844;6.582;2024-03-02T07:09:16;6.97;;;1.90;;
65737;SDS011;52478;51.844;6.582;2024-03-02T07:11:43;6.15;;;2.00;;
65737;SDS011;52478;51.844;6.582;2024-03-02T07:14:10;8.02;;;1.88;;
65737;SDS011;52478;51.844;6.582;2024-03-02T07:16:37;7.13;;;1.95;;
65737;SDS011;52478;51.844;6.582;2024-03-02T07:19:05;6.38;;;2.10;;
65737;SDS011;52478;51.844;6.582;2024-03-02T07:21:31;5.15;;;1.88;;
65737;SDS011;52478;51.844;6.582;2024-03-02T07:23:58;6.18;;;2.00;;
65737;SDS011;52478;51.844;6.582;2024-03-02T07:26:27;5.63;;;2.00;;
65737;SDS011;52478;51.844;6.582;2024-03-02T07:28:56;5.65;;;1.90;;
65737;SDS011;52478;51.844;6.582;2024-03-02T07:31:23;6.05;;;1.95;;
65737;SDS011;52478;51.844;6.582;2024-03-02T07:33:49;6.72;;;2.03;;
65737;SDS011;52478;51.844;6.582;2024-03-02T07:36:15;6.38;;;1.90;;
65737;SDS011;52478;51.844;6.582;2024-03-02T07:38:42;7.47;;;2.30;;
65737;SDS011;52478;51.844;6.582;2024-03-02T07:43:36;6.18;;;1.95;;
65737;SDS011;52478;51.844;6.582;2024-03-02T07:46:04;6.32;;;1.90;;
65737;SDS011;52478;51.844;6.582;2024-03-02T07:48:31;4.82;;;1.67;;
65737;SDS011;52478;51.844;6.582;2024-03-02T07:50:57;8.32;;;2.00;;
65737;SDS011;52478;51.844;6.582;2024-03-02T07:53:24;5.00;;;1.90;;
65737;SDS011;52478;51.844;6.582;2024-03-02T07:55:50;19.63;;;4.22;;
65737;SDS011;52478;51.844;6.582;2024-03-02T07:58:16;42.00;;;9.15;;
65737;SDS011;52478;51.844;6.582;2024-03-02T08:00:44;34.47;;;7.47;;
65737;SDS011;52478;51.844;6.582;2024-03-02T08:03:12;32.20;;;6.47;;
65737;SDS011;52478;51.844;6.582;2024-03-02T08:05:39;29.90;;;6.63;;
65737;SDS011;52478;51.844;6.582;2024-03-02T08:08:06;18.98;;;6.07;;
65737;SDS011;52478;51.844;6.582;2024-03-02T08:10:33;21.13;;;4.97;;
65737;SDS011;52478;51.844;6.582;2024-03-02T08:12:59;23.25;;;5.20;;
65737;SDS011;52478;51.844;6.582;2024-03-02T08:15:26;18.90;;;5.07;;
65737;SDS011;52478;51.844;6.582;2024-03-02T08:17:52;17.85;;;4.25;;
65737;SDS011;52478;51.844;6.582;2024-03-02T08:20:20;18.08;;;4.13;;
65737;SDS011;52478;51.844;6.582;2024-03-02T08:22:47;17.80;;;4.43;;
65737;SDS011;52478;51.844;6.582;2024-03-02T08:25:13;21.13;;;4.35;;
65737;SDS011;52478;51.844;6.582;2024-03-02T08:27:40;21.73;;;4.18;;
65737;SDS011;52478;51.844;6.582;2024-03-02T08:30:07;13.88;;;3.65;;
65737;SDS011;52478;51.844;6.582;2024-03-02T08:32:35;17.08;;;4.00;;
65737;SDS011;52478;51.844;6.582;2024-03-02T08:35:02;12.93;;;3.80;;
65737;SDS011;52478;51.844;6.582;2024-03-02T08:37:30;14.02;;;3.35;;
65737;SDS011;52478;51.844;6.582;2024-03-02T08:39:57;15.32;;;3.45;;
65737;SDS011;52478;51.844;6.582;2024-03-02T08:42:23;14.38;;;3.80;;
65737;SDS011;52478;51.844;6.582;2024-03-02T08:44:50;12.18;;;3.92;;
65737;SDS011;52478;51.844;6.582;2024-03-02T08:47:17;14.40;;;3.40;;
65737;SDS011;52478;51.844;6.582;2024-03-02T08:49:43;14.75;;;4.50;;
65737;SDS011;52478;51.844;6.582;2024-03-02T08:52:10;12.93;;;3.15;;
65737;SDS011;52478;51.844;6.582;2024-03-02T08:54:37;18.02;;;3.92;;
65737;SDS011;52478;51.844;6.582;2024-03-02T08:57:04;11.25;;;3.08;;
65737;SDS011;52478;51.844;6.582;2024-03-02T08:59:32;12.70;;;3.15;;
65737;SDS011;52478;51.844;6.582;2024-03-02T09:01:59;11.27;;;2.92;;
65737;SDS011;52478;51.844;6.582;2024-03-02T09:04:25;10.00;;;2.20;;
65737;SDS011;52478;51.844;6.582;2024-03-02T09:06:52;10.07;;;2.45;;
65737;SDS011;52478;51.844;6.582;2024-03-02T09:09:18;7.20;;;2.33;;
65737;SDS011;52478;51.844;6.582;2024-03-02T09:11:46;8.60;;;2.00;;
65737;SDS011;52478;51.844;6.582;2024-03-02T09:14:14;12.70;;;2.47;;
65737;SDS011;52478;51.844;6.582;2024-03-02T09:16:41;10.00;;;2.25;;
65737;SDS011;52478;51.844;6.582;2024-03-02T09:19:08;12.68;;;2.40;;
65737;SDS011;52478;51.844;6.582;2024-03-02T09:21:35;16.08;;;2.53;;
65737;SDS011;52478;51.844;6.582;2024-03-02T09:24:01;12.15;;;2.17;;
65737;SDS011;52478;51.844;6.582;2024-03-02T09:26:28;9.43;;;2.20;;
65737;SDS011;52478;51.844;6.582;2024-03-02T09:28:56;9.65;;;1.92;;
65737;SDS011;52478;51.844;6.582;2024-03-02T09:31:22;9.32;;;2.03;;
65737;SDS011;52478;51.844;6.582;2024-03-02T09:33:49;7.22;;;2.00;;
65737;SDS011;52478;51.844;6.582;2024-03-02T09:36:18;10.00;;;2.00;;
65737;SDS011;52478;51.844;6.582;2024-03-02T09:38:45;10.27;;;1.98;;
65737;SDS011;52478;51.844;6.582;2024-03-02T09:41:12;7.35;;;1.63;;
65737;SDS011;52478;51.844;6.582;2024-03-02T09:43:38;8.75;;;1.65;;
65737;SDS011;52478;51.844;6.582;2024-03-02T09:46:07;7.85;;;1.88;;
65737;SDS011;52478;51.844;6.582;2024-03-02T09:48:35;7.78;;;1.65;;
65737;SDS011;52478;51.844;6.582;2024-03-02T09:51:01;8.35;;;1.70;;
65737;SDS011;52478;51.844;6.582;2024-03-02T09:53:28;8.93;;;1.70;;
65737;SDS011;52478;51.844;6.582;2024-03-02T09:55:58;8.20;;;1.77;;
65737;SDS011;52478;51.844;6.582;2024-03-02T09:58:25;6.05;;;1.73;;
65737;SDS011;52478;51.844;6.582;2024-03-02T10:00:52;7.75;;;2.33;;
65737;SDS011;52478;51.844;6.582;2024-03-02T10:03:20;5.10;;;1.50;;
65737;SDS011;52478;51.844;6.582;2024-03-02T10:05:47;6.38;;;1.77;;
65737;SDS011;52478;51.844;6.582;2024-03-02T10:08:13;6.88;;;1.80;;
65737;SDS011;52478;51.844;6.582;2024-03-02T10:10:40;5.88;;;1.60;;
65737;SDS011;52478;51.844;6.582;2024-03-02T10:13:08;8.38;;;1.98;;
65737;SDS011;52478;51.844;6.582;2024-03-02T10:15:36;6.97;;;1.58;;
65737;SDS011;52478;51.844;6.582;2024-03-02T10:18:06;7.35;;;1.52;;
65737;SDS011;52478;51.844;6.582;2024-03-02T10:20:37;8.45;;;1.70;;
65737;SDS011;52478;51.844;6.582;2024-03-02T10:23:10;7.18;;;1.42;;
65737;SDS011;52478;51.844;6.582;2024-03-02T10:25:38;5.95;;;1.63;;
65737;SDS011;52478;51.844;6.582;2024-03-02T10:28:05;6.45;;;1.73;;
65737;SDS011;52478;51.844;6.582;2024-03-02T10:30:32;8.02;;;1.58;;
65737;SDS011;52478;51.844;6.582;2024-03-02T10:32:59;8.32;;;1.52;;
65737;SDS011;52478;51.844;6.582;2024-03-02T10:35:27;6.00;;;1.60;;
65737;SDS011;52478;51.844;6.582;2024-03-02T10:37:55;5.25;;;1.33;;
65737;SDS011;52478;51.844;6.582;2024-03-02T10:40:22;7.05;;;1.50;;
65737;SDS011;52478;51.844;6.582;2024-03-02T10:42:49;5.72;;;1.40;;
65737;SDS011;52478;51.844;6.582;2024-03-02T10:47:43;5.50;;;1.23;;
65737;SDS011;52478;51.844;6.582;2024-03-02T10:50:09;5.28;;;1.60;;
65737;SDS011;52478;51.844;6.582;2024-03-02T10:52:36;6.28;;;1.42;;
65737;SDS011;52478;51.844;6.582;2024-03-02T10:55:06;5.28;;;1.40;;
65737;SDS011;52478;51.844;6.582;2024-03-02T10:57:36;6.22;;;1.60;;
65737;SDS011;52478;51.844;6.582;2024-03-02T11:00:08;4.45;;;1.48;;
65737;SDS011;52478;51.844;6.582;2024-03-02T11:02:40;6.65;;;1.50;;
65737;SDS011;52478;51.844;6.582;2024-03-02T11:05:13;3.45;;;1.13;;
65737;SDS011;52478;51.844;6.582;2024-03-02T11:07:45;3.90;;;1.15;;
65737;SDS011;52478;51.844;6.582;2024-03-02T11:10:13;9.25;;;1.25;;
65737;SDS011;52478;51.844;6.582;2024-03-02T11:12:43;4.65;;;1.10;;
65737;SDS011;52478;51.844;6.582;2024-03-02T11:15:17;5.43;;;1.50;;
65737;SDS011;52478;51.844;6.582;2024-03-02T11:17:44;6.35;;;1.20;;
65737;SDS011;52478;51.844;6.582;2024-03-02T11:20:12;3.83;;;1.10;;
65737;SDS011;52478;51.844;6.582;2024-03-02T11:25:06;4.60;;;1.10;;
65737;SDS011;52478;51.844;6.582;2024-03-02T11:28:00;4.57;;;1.30;;
65737;SDS011;52478;51.844;6.582;2024-03-02T11:33:22;6.75;;;1.40;;
65737;SDS011;52478;51.844;6.582;2024-03-02T11:35:52;4.57;;;1.10;;
65737;SDS011;52478;51.844;6.582;2024-03-02T11:38:18;4.97;;;1.10;;
65737;SDS011;52478;51.844;6.582;2024-03-02T11:40:46;5.57;;;1.50;;
65737;SDS011;52478;51.844;6.582;2024-03-02T11:43:13;4.28;;;1.00;;
65737;SDS011;52478;51.844;6.582;2024-03-02T11:45:41;4.30;;;1.30;;
65737;SDS011;52478;51.844;6.582;2024-03-02T11:48:09;4.13;;;1.10;;
65737;SDS011;52478;51.844;6.582;2024-03-02T11:50:39;5.57;;;1.20;;
65737;SDS011;52478;51.844;6.582;2024-03-02T11:53:07;5.18;;;1.20;;
65737;SDS011;52478;51.844;6.582;2024-03-02T11:55:34;4.80;;;1.27;;
65737;SDS011;52478;51.844;6.582;2024-03-02T11:58:03;3.95;;;1.17;;
65737;SDS011;52478;51.844;6.582;2024-03-02T12:00:30;4.43;;;1.13;;
65737;SDS011;52478;51.844;6.582;2024-03-02T12:02:59;5.75;;;1.23;;
65737;SDS011;52478;51.844;6.582;2024-03-02T12:05:27;4.90;;;1.08;;
65737;SDS011;52478;51.844;6.582;2024-03-02T12:10:22;6.03;;;1.20;;
65737;SDS011;52478;51.844;6.582;2024-03-02T12:12:54;4.15;;;1.10;;
65737;SDS011;52478;51.844;6.582;2024-03-02T12:15:23;4.88;;;1.33;;
65737;SDS011;52478;51.844;6.582;2024-03-02T12:17:52;5.22;;;1.25;;
65737;SDS011;52478;51.844;6.582;2024-03-02T12:20:20;6.07;;;1.48;;
65737;SDS011;52478;51.844;6.582;2024-03-02T12:22:48;5.82;;;1.60;;
65737;SDS011;52478;51.844;6.582;2024-03-02T12:27:42;4.72;;;1.30;;
65737;SDS011;52478;51.844;6.582;2024-03-02T12:30:09;5.90;;;1.33;;
65737;SDS011;52478;51.844;6.582;2024-03-02T12:32:40;5.00;;;1.58;;
65737;SDS011;52478;51.844;6.582;2024-03-02T12:35:07;5.32;;;1.33;;
65737;SDS011;52478;51.844;6.582;2024-03-02T12:37:37;4.85;;;1.45;;
65737;SDS011;52478;51.844;6.582;2024-03-02T12:40:09;5.00;;;1.48;;
65737;SDS011;52478;51.844;6.582;2024-03-02T12:42:36;6.47;;;1.58;;
65737;SDS011;52478;51.844;6.582;2024-03-02T12:45:03;5.43;;;1.40;;
65737;SDS011;52478;51.844;6.582;2024-03-02T12:47:30;6.18;;;1.73;;
65737;SDS011;52478;51.844;6.582;2024-03-02T12:49:58;6.93;;;1.52;;
65737;SDS011;52478;51.844;6.582;2024-03-02T12:52:24;5.80;;;1.50;;
65737;SDS011;52478;51.844;6.582;2024-03-02T12:54:51;5.55;;;1.85;;
65737;SDS011;52478;51.844;6.582;2024-03-02T12:57:24;7.70;;;2.00;;
65737;SDS011;52478;51.844;6.582;2024-03-02T12:59:52;9.85;;;2.20;;
65737;SDS011;52478;51.844;6.582;2024-03-02T13:02:18;5.95;;;1.75;;
65737;SDS011;52478;51.844;6.582;2024-03-02T13:04:51;8.68;;;1.80;;
65737;SDS011;52478;51.844;6.582;2024-03-02T13:07:19;6.28;;;1.80;;
65737;SDS011;52478;51.844;6.582;2024-03-02T13:09:47;11.23;;;1.88;;
65737;SDS011;52478;51.844;6.582;2024-03-02T13:12:14;7.47;;;1.70;;
65737;SDS011;52478;51.844;6.582;2024-03-02T13:14:41;7.47;;;1.95;;
65737;SDS011;52478;51.844;6.582;2024-03-02T13:17:07;8.50;;;2.47;;
65737;SDS011;52478;51.844;6.582;2024-03-02T13:19:34;7.07;;;1.90;;
65737;SDS011;52478;51.844;6.582;2024-03-02T13:22:01;7.25;;;2.05;;
65737;SDS011;52478;51.844;6.582;2024-03-02T13:24:29;7.30;;;1.90;;
65737;SDS011;52478;51.844;6.582;2024-03-02T13:26:56;8.57;;;2.17;;
65737;SDS011;52478;51.844;6.582;2024-03-02T13:29:23;7.43;;;2.03;;
65737;SDS011;52478;51.844;6.582;2024-03-02T13:31:50;7.57;;;2.33;;
65737;SDS011;52478;51.844;6.582;2024-03-02T13:34:17;7.00;;;2.00;;
65737;SDS011;52478;51.844;6.582;2024-03-02T13:36:44;7.93;;;2.20;;
65737;SDS011;52478;51.844;6.582;2024-03-02T13:39:10;8.40;;;1.92;;
65737;SDS011;52478;51.844;6.582;2024-03-02T13:41:41;8.38;;;1.90;;
65737;SDS011;52478;51.844;6.582;2024-03-02T13:44:16;8.20;;;2.20;;
65737;SDS011;52478;51.844;6.582;2024-03-02T13:46:43;6.63;;;1.92;;
65737;SDS011;52478;51.844;6.582;2024-03-02T13:49:10;8.55;;;2.20;;
65737;SDS011;52478;51.844;6.582;2024-03-02T13:51:37;7.25;;;2.03;;
65737;SDS011;52478;51.844;6.582;2024-03-02T13:54:03;7.10;;;1.92;;
65737;SDS011;52478;51.844;6.582;2024-03-02T13:56:30;6.95;;;2.10;;
65737;SDS011;52478;51.844;6.582;2024-03-02T13:58:58;8.05;;;2.20;;
65737;SDS011;52478;51.844;6.582;2024-03-02T14:01:25;8.63;;;2.60;;
65737;SDS011;52478;51.844;6.582;2024-03-02T14:03:52;7.68;;;2.20;;
65737;SDS011;52478;51.844;6.582;2024-03-02T14:06:19;8.43;;;2.20;;
65737;SDS011;52478;51.844;6.582;2024-03-02T14:08:46;8.23;;;2.30;;
65737;SDS011;52478;51.844;6.582;2024-03-02T14:11:13;6.28;;;1.90;;
65737;SDS011;52478;51.844;6.582;2024-03-02T14:13:41;5.72;;;1.90;;
65737;SDS011;52478;51.844;6.582;2024-03-02T14:16:10;7.80;;;2.10;;
65737;SDS011;52478;51.844;6.582;2024-03-02T14:18:37;7.30;;;2.08;;
65737;SDS011;52478;51.844;6.582;2024-03-02T14:21:03;6.95;;;1.90;;
65737;SDS011;52478;51.844;6.582;2024-03-02T14:23:30;7.15;;;1.80;;
65737;SDS011;52478;51.844;6.582;2024-03-02T14:25:56;7.00;;;1.73;;
65737;SDS011;52478;51.844;6.582;2024-03-02T14:28:24;6.90;;;1.92;;
65737;SDS011;52478;51.844;6.582;2024-03-02T14:30:50;7.85;;;2.00;;
65737;SDS011;52478;51.844;6.582;2024-03-02T14:33:18;7.70;;;2.40;;
65737;SDS011;52478;51.844;6.582;2024-03-02T14:35:45;9.27;;;1.80;;
65737;SDS011;52478;51.844;6.582;2024-03-02T14:38:11;5.80;;;1.50;;
65737;SDS011;52478;51.844;6.582;2024-03-02T14:40:38;5.43;;;1.55;;
65737;SDS011;52478;51.844;6.582;2024-03-02T14:43:04;5.57;;;1.30;;
65737;SDS011;52478;51.844;6.582;2024-03-02T14:45:31;6.47;;;1.80;;
65737;SDS011;52478;51.844;6.582;2024-03-02T14:47:57;5.15;;;1.50;;
65737;SDS011;52478;51.844;6.582;2024-03-02T14:50:26;5.50;;;1.50;;
65737;SDS011;52478;51.844;6.582;2024-03-02T14:52:52;6.38;;;1.40;;
65737;SDS011;52478;51.844;6.582;2024-03-02T14:55:18;5.82;;;1.73;;
65737;SDS011;52478;51.844;6.582;2024-03-02T14:57:45;5.32;;;1.52;;
65737;SDS011;52478;51.844;6.582;2024-03-02T15:00:11;8.68;;;2.00;;
65737;SDS011;52478;51.844;6.582;2024-03-02T15:02:38;5.72;;;1.60;;
65737;SDS011;52478;51.844;6.582;2024-03-02T15:05:05;6.25;;;1.60;;
65737;SDS011;52478;51.844;6.582;2024-03-02T15:07:33;5.70;;;1.52;;
65737;SDS011;52478;51.844;6.582;2024-03-02T15:09:59;7.43;;;2.03;;